Aérodrome :
LOGIN :

S'inscrire | Disclaimer

   EN    FR    IT 

 










Légende :    VFR   VFR Marginal   IFR   IFR Intensif   IFR Très Intensif
Visi : 
Plafond : 
>= 8 km
>= 3000ft
5 à 8 km
1000 à 3000 ft
1500m à 5 km
500 à 1000 ft
800 à 1500m
200 à 500 ft
< 800m
< 200 ft
Symboles :   Orages  Brouillard  Fortes neiges  Fortes précipitations  Vent > 20 kt
SIGMETs :   Divers  Orages  Givrage  Turbulence  Onde Orograph.  Cendres Volcan.







- Altitude de l'aérodrome : 1521 ft
- Code IATA : NCY
- Voir les cartes d'approche


LFLP - Annecy

DERNIER METAR :
  • 210430Z AUTO 00000KT CAVOK 04/03 Q1020 TEMPO 0400 BCFG

METARs EXPIRÉS :
  • 210400Z AUTO 35003KT CAVOK 04/03 Q1020 TEMPO 0400 BCFG
  • 210330Z AUTO 33002KT CAVOK 04/03 Q1020 TEMPO 0400 BCFG
  • 210300Z AUTO 36003KT CAVOK 04/04 Q1021 TEMPO 0400 BCFG
  • 210230Z AUTO 03004KT CAVOK 04/03 Q1021 TEMPO 0400 BCFG
  • 210200Z AUTO 36003KT 320V030 CAVOK 04/04 Q1021

TAF TAF LFLP
Valide du 21 à 03h jusqu'au 22 à 03h UTC


210200Z 2103/2203 VRB02KT CAVOK
TEMPO 2103/2109 0400 BCFG
Pas de NOTAMs connus pour ce terrain.



MET'MAP, la Météo Aéronautique d'un coup d'oeil ! - Copyright ORBIFLY Décembre 2007 - Disclaimer

ORBIFLY MET'MAP TEAM :

Programmation & Développement : Alexandra Zaïnal
Conception & Développement : Baudouin d'Aumeries
Co-Programmation & Développement : Marc-Olivier Méhu
Soutien technique & logistique : Manuel Goepfert

Contact : metmap@orbifly.com




SOURCES & CREDITS :

   NOAA